Time;durP1;ratioP1;P1;durP2;ratioP2;P2;SDS_P1;SDS_P2;PMS_P1;PMS_P2;Temp;Humidity;BMP_temperature;BMP_pressure;BME280_temperature;BME280_humidity;BME280_pressure;Samples;Min_cycle;Max_cycle;Signal;HPM_P1;HPM_P2
2021/05/22 00:00:48;;;;;;;14.40;4.60;;;;;;;17.29;52.96;99749.97;4984495;28;20041;-83
2021/05/22 00:03:14;;;;;;;9.15;4.20;;;;;;;17.19;52.83;99739.25;4986131;28;20041;-82
2021/05/22 00:05:40;;;;;;;7.13;4.47;;;;;;;17.18;53.17;99749.19;5006374;28;20046;-82
2021/05/22 00:08:06;;;;;;;9.82;4.85;;;;;;;17.08;53.64;99753.84;4971130;28;20140;-83
2021/05/22 00:10:32;;;;;;;14.93;4.47;;;;;;;17.08;53.33;99748.44;5016482;28;20053;-82
2021/05/22 00:12:58;;;;;;;12.93;4.40;;;;;;;17.03;53.66;99749.91;5004017;28;20041;-82
2021/05/22 00:19:27;;;;;;;11.25;4.72;;;;;;;16.85;54.26;99725.56;5041187;28;20465;-81
2021/05/22 00:21:57;;;;;;;12.30;4.80;;;;;;;16.87;54.22;99734.38;5004485;28;20071;-83
2021/05/22 00:24:23;;;;;;;15.23;5.22;;;;;;;16.78;54.49;99719.97;5003663;28;20079;-82
2021/05/22 00:26:48;;;;;;;9.68;4.63;;;;;;;16.79;54.50;99734.31;5036816;28;20045;-81
2021/05/22 00:29:16;;;;;;;9.70;4.50;;;;;;;16.75;54.45;99726.50;5036276;28;20040;-82
2021/05/22 00:31:43;;;;;;;14.00;4.95;;;;;;;16.86;54.57;99743.50;5036679;28;20052;-82
2021/05/22 00:34:09;;;;;;;14.93;4.78;;;;;;;16.87;54.38;99750.59;5036519;28;20041;-81
2021/05/22 00:36:35;;;;;;;7.80;4.90;;;;;;;16.90;54.50;99761.09;5003911;28;20451;-82
2021/05/22 00:39:02;;;;;;;10.48;5.70;;;;;;;16.87;54.86;99772.19;5019741;28;20045;-82
2021/05/22 00:41:28;;;;;;;13.18;4.88;;;;;;;16.88;54.43;99768.47;5053182;28;20033;-81
2021/05/22 00:44:05;;;;;;;7.53;4.70;;;;;;;16.85;54.53;99769.66;5006777;28;20045;-81
2021/05/22 00:46:31;;;;;;;9.98;5.18;;;;;;;16.81;54.82;99772.78;5036273;28;20167;-80
2021/05/22 00:48:57;;;;;;;6.38;4.60;;;;;;;16.75;54.81;99763.47;5036377;28;20072;-80
2021/05/22 00:51:23;;;;;;;11.45;5.05;;;;;;;16.77;55.27;99764.13;5035951;28;20538;-81
2021/05/22 00:53:50;;;;;;;11.77;4.70;;;;;;;16.61;55.56;99756.69;5003765;28;20480;-82
2021/05/22 00:56:16;;;;;;;14.13;4.50;;;;;;;16.69;55.41;99754.06;5035776;28;20045;-84
2021/05/22 00:58:43;;;;;;;9.10;4.97;;;;;;;16.86;55.16;99765.09;5004072;28;20048;-82
2021/05/22 01:01:09;;;;;;;9.90;4.63;;;;;;;16.87;54.96;99766.78;4987404;28;20044;-82
2021/05/22 01:03:39;;;;;;;8.60;4.40;;;;;;;16.95;54.67;99764.16;5019328;28;20041;-82
2021/05/22 01:06:15;;;;;;;11.27;4.65;;;;;;;16.97;54.75;99764.88;5003969;28;20110;-81
2021/05/22 01:08:46;;;;;;;15.90;3.90;;;;;;;16.90;54.62;99756.53;5019648;28;20450;-81
2021/05/22 01:11:17;;;;;;;7.15;4.25;;;;;;;17.06;54.48;99755.84;5019366;28;20083;-81
2021/05/22 01:13:43;;;;;;;11.38;4.10;;;;;;;17.22;54.08;99758.69;5035980;28;20052;-84
2021/05/22 01:16:10;;;;;;;10.73;4.40;;;;;;;17.26;53.89;99764.63;5003165;28;20057;-84
2021/05/22 01:18:36;;;;;;;11.48;4.40;;;;;;;17.34;53.77;99763.84;5003028;28;20135;-83
2021/05/22 01:21:03;;;;;;;9.30;4.13;;;;;;;17.29;53.74;99768.88;5040184;28;20135;-80
2021/05/22 01:23:32;;;;;;;11.15;4.10;;;;;;;17.29;53.90;99768.88;5030490;28;20067;-83
2021/05/22 01:25:58;;;;;;;9.20;4.68;;;;;;;17.24;53.95;99759.38;5024283;28;20041;-84
2021/05/22 01:28:24;;;;;;;10.85;4.07;;;;;;;17.34;54.04;99774.66;5019613;28;20075;-84
2021/05/22 01:30:50;;;;;;;12.23;4.38;;;;;;;17.33;53.86;99759.44;5036288;28;20040;-83
2021/05/22 01:33:19;;;;;;;9.93;4.25;;;;;;;17.44;53.38;99775.41;5035618;28;20044;-83
2021/05/22 01:35:45;;;;;;;7.18;4.68;;;;;;;17.44;53.34;99778.13;5035948;28;20045;-81
2021/05/22 01:38:11;;;;;;;6.55;3.60;;;;;;;17.54;53.40;99791.56;4986688;28;20059;-81
2021/05/22 01:40:37;;;;;;;9.68;4.07;;;;;;;17.45;53.77;99796.03;5019045;28;20052;-82
2021/05/22 01:43:03;;;;;;;12.20;4.07;;;;;;;17.51;53.56;99786.47;5002796;28;20041;-82
2021/05/22 01:45:32;;;;;;;12.13;4.07;;;;;;;17.50;53.56;99785.63;5035389;28;20075;-83
2021/05/22 01:48:04;;;;;;;6.95;4.50;;;;;;;17.43;53.58;99792.66;5036712;28;20048;-80
2021/05/22 01:50:32;;;;;;;9.55;4.38;;;;;;;17.43;53.85;99785.38;5035168;28;20582;-82
2021/05/22 01:52:59;;;;;;;8.02;4.25;;;;;;;17.52;53.56;99772.78;5019015;28;20549;-82
2021/05/22 01:55:25;;;;;;;13.35;4.20;;;;;;;17.61;53.32;99777.25;5018778;28;20099;-82
2021/05/22 01:57:51;;;;;;;12.30;4.60;;;;;;;17.63;53.31;99775.22;5051470;28;20080;-82
2021/05/22 02:00:17;;;;;;;14.43;5.25;;;;;;;17.49;53.57;99781.22;5034985;28;20098;-84
2021/05/22 02:03:05;;;;;;;7.40;4.30;;;;;;;17.53;53.64;99785.31;5002414;28;20041;-83
2021/05/22 02:05:34;;;;;;;7.00;3.92;;;;;;;17.62;53.21;99783.50;5022927;28;20397;-83
2021/05/22 02:08:00;;;;;;;8.13;3.92;;;;;;;17.66;53.56;99779.47;5020567;28;20041;-80
2021/05/22 02:10:26;;;;;;;13.20;4.88;;;;;;;17.75;53.14;99774.97;5022474;28;20114;-76
2021/05/22 02:12:56;;;;;;;14.90;4.90;;;;;;;17.85;53.31;99783.88;5055469;28;20444;-82
2021/05/22 02:15:25;;;;;;;8.02;3.72;;;;;;;17.95;52.91;99784.63;5055496;28;20041;-81
2021/05/22 02:17:51;;;;;;;9.30;3.90;;;;;;;18.02;52.59;99787.56;5055653;28;20053;-81
2021/05/22 02:20:17;;;;;;;9.40;3.75;;;;;;;18.15;52.80;99794.19;5021955;28;20049;-84
2021/05/22 02:22:43;;;;;;;11.68;4.05;;;;;;;18.30;52.44;99790.91;5038885;28;20099;-78
2021/05/22 02:25:11;;;;;;;11.38;4.07;;;;;;;18.43;52.12;99805.69;5022328;28;20098;-85
2021/05/22 02:27:37;;;;;;;8.85;4.00;;;;;;;18.51;52.03;99809.47;5006275;28;20415;-79
2021/05/22 02:30:08;;;;;;;9.95;3.80;;;;;;;18.59;51.99;99801.38;5022272;28;20049;-82
2021/05/22 02:32:36;;;;;;;7.38;4.20;;;;;;;18.67;51.97;99790.56;5037681;28;20491;-85
2021/05/22 02:35:03;;;;;;;9.18;3.92;;;;;;;18.72;51.88;99793.66;5058531;28;20048;-77
2021/05/22 02:37:30;;;;;;;9.45;4.15;;;;;;;18.93;51.68;99804.06;5075096;28;20048;-80
2021/05/22 02:39:58;;;;;;;9.10;4.78;;;;;;;19.04;51.88;99792.91;5041931;28;20094;-84
2021/05/22 02:42:24;;;;;;;6.53;4.30;;;;;;;19.21;51.40;99801.06;5042118;28;20044;-83
2021/05/22 02:44:51;;;;;;;12.80;4.45;;;;;;;19.36;51.12;99804.78;5075055;28;20102;-82
2021/05/22 02:47:19;;;;;;;10.00;4.20;;;;;;;19.51;50.73;99810.41;5074889;28;20056;-80
2021/05/22 02:49:44;;;;;;;9.38;4.28;;;;;;;19.64;50.59;99811.63;5058420;28;20050;-83
2021/05/22 02:52:11;;;;;;;12.18;4.20;;;;;;;19.70;50.24;99820.94;5059227;28;20041;-81
2021/05/22 02:54:39;;;;;;;12.88;4.47;;;;;;;19.73;50.11;99814.34;5058040;28;20075;-80
2021/05/22 02:57:06;;;;;;;10.77;4.13;;;;;;;19.74;49.92;99816.03;5075608;28;20040;-79
2021/05/22 02:59:32;;;;;;;8.43;4.07;;;;;;;19.77;49.98;99816.53;5059156;28;20275;-84
2021/05/22 03:01:58;;;;;;;15.30;4.50;;;;;;;19.92;50.01;99822.09;5040114;28;20098;-80
2021/05/22 03:04:24;;;;;;;15.13;4.07;;;;;;;20.00;49.69;99819.38;5074933;28;20071;-82
2021/05/22 03:06:50;;;;;;;7.53;3.70;;;;;;;20.05;49.76;99819.72;5075126;28;20051;-82
2021/05/22 03:09:16;;;;;;;13.60;4.53;;;;;;;20.26;49.61;99829.19;5075813;28;20130;-81
2021/05/22 03:11:42;;;;;;;20.02;8.02;;;;;;;20.47;49.32;99815.88;5058127;28;20052;-81
2021/05/22 03:14:08;;;;;;;16.27;5.38;;;;;;;20.64;49.33;99813.13;5074784;28;20125;-86
2021/05/22 03:16:34;;;;;;;17.92;4.45;;;;;;;20.70;48.83;99804.28;5074568;28;20050;-86
2021/05/22 03:19:00;;;;;;;8.18;4.35;;;;;;;20.80;48.99;99807.66;5074517;28;20442;-84
2021/05/22 03:21:26;;;;;;;11.50;4.32;;;;;;;20.96;48.86;99814.88;5073934;28;20500;-83
2021/05/22 03:23:52;;;;;;;13.23;4.43;;;;;;;21.04;48.75;99802.06;5074727;28;20075;-77
2021/05/22 03:26:18;;;;;;;18.17;4.32;;;;;;;21.05;49.03;99802.91;5074451;28;20416;-77
2021/05/22 03:28:44;;;;;;;21.75;4.60;;;;;;;21.14;49.69;99798.25;5057502;28;20518;-82
2021/05/22 03:31:10;;;;;;;20.42;4.30;;;;;;;21.34;49.05;99803.09;5024325;28;20071;-78
2021/05/22 03:33:36;;;;;;;19.17;4.35;;;;;;;21.46;48.38;99808.09;5037905;28;20123;-78
2021/05/22 03:36:03;;;;;;;16.45;4.13;;;;;;;21.58;48.49;99812.91;5041399;28;20032;-78
2021/05/22 03:38:29;;;;;;;23.08;4.75;;;;;;;21.73;48.24;99803.97;5040510;28;20063;-80
2021/05/22 03:40:54;;;;;;;8.50;3.70;;;;;;;21.83;47.68;99812.72;5057344;28;20499;-81
2021/05/22 03:43:20;;;;;;;9.77;3.67;;;;;;;21.82;47.79;99813.75;5057095;28;20400;-79
2021/05/22 03:45:46;;;;;;;14.27;4.13;;;;;;;22.01;47.65;99824.13;5073629;28;20140;-79
2021/05/22 03:48:12;;;;;;;11.45;3.33;;;;;;;22.16;47.13;99816.00;5057201;28;20134;-78
2021/05/22 03:50:38;;;;;;;13.13;3.70;;;;;;;22.34;47.07;99809.34;5074995;28;20078;-79
2021/05/22 03:53:04;;;;;;;14.38;3.83;;;;;;;22.46;46.63;99811.41;5073672;28;20037;-77
2021/05/22 03:55:30;;;;;;;13.73;3.33;;;;;;;22.52;46.65;99815.25;5057109;28;20135;-77
2021/05/22 03:57:56;;;;;;;8.05;3.92;;;;;;;22.59;46.32;99820.81;5073384;28;20037;-81
2021/05/22 04:00:22;;;;;;;9.35;3.20;;;;;;;22.58;45.77;99813.66;5073526;28;20144;-79
2021/05/22 04:02:48;;;;;;;6.38;2.97;;;;;;;22.65;45.89;99817.34;5073452;28;20045;-79
2021/05/22 04:05:14;;;;;;;8.52;3.50;;;;;;;22.71;45.82;99809.22;5072918;28;20097;-80
2021/05/22 04:07:40;;;;;;;15.52;3.58;;;;;;;22.68;45.87;99798.72;5072106;28;20182;-79
2021/05/22 04:10:07;;;;;;;15.65;3.10;;;;;;;22.76;45.72;99805.94;5068035;28;20063;-77
2021/05/22 04:12:33;;;;;;;11.48;3.17;;;;;;;22.96;45.55;99809.78;5019654;28;20134;-80
2021/05/22 04:14:59;;;;;;;8.27;3.40;;;;;;;23.10;45.03;99801.78;4986994;28;20143;-80
2021/05/22 04:17:25;;;;;;;14.77;3.55;;;;;;;23.22;44.99;99794.75;5019499;28;20194;-79
2021/05/22 04:19:51;;;;;;;12.23;3.30;;;;;;;23.39;44.71;99807.09;5053676;28;20195;-80
2021/05/22 04:22:17;;;;;;;10.57;3.10;;;;;;;23.40;44.45;99797.91;5054549;28;20036;-79
2021/05/22 04:24:42;;;;;;;14.23;3.85;;;;;;;23.57;44.40;99797.63;5054096;28;20098;-78
2021/05/22 04:27:08;;;;;;;7.95;3.20;;;;;;;23.73;44.55;99791.91;5054156;28;20041;-79
2021/05/22 04:29:34;;;;;;;9.00;2.80;;;;;;;23.89;44.21;99802.56;5019262;28;20136;-77
2021/05/22 04:32:00;;;;;;;14.15;3.95;;;;;;;24.12;44.10;99801.47;5035618;28;20071;-79
2021/05/22 04:34:26;;;;;;;8.30;2.85;;;;;;;24.27;43.76;99802.19;5036257;28;20099;-80
2021/05/22 04:36:52;;;;;;;14.13;3.08;;;;;;;24.35;43.26;99787.53;5053885;28;20055;-82
2021/05/22 04:39:18;;;;;;;19.35;3.00;;;;;;;24.37;42.79;99789.03;5036185;28;20044;-80
2021/05/22 04:41:44;;;;;;;12.95;2.35;;;;;;;24.36;42.89;99778.28;5053797;28;20555;-82
2021/05/22 04:44:10;;;;;;;13.35;3.00;;;;;;;24.53;43.14;99789.78;5019449;28;20056;-79
2021/05/22 04:46:37;;;;;;;10.02;2.55;;;;;;;24.54;42.26;99777.78;5003614;28;20144;-80
2021/05/22 04:49:04;;;;;;;9.82;2.38;;;;;;;24.52;42.60;99779.88;5035964;28;20126;-80
2021/05/22 04:51:39;;;;;;;10.75;2.53;;;;;;;24.52;42.61;99777.13;5003246;28;20072;-80
2021/05/22 04:54:07;;;;;;;9.65;2.13;;;;;;;24.67;42.65;99784.16;4986715;28;20121;-81
2021/05/22 04:56:33;;;;;;;9.55;2.30;;;;;;;24.78;42.88;99777.25;5035847;28;20044;-79
2021/05/22 04:58:59;;;;;;;12.25;2.55;;;;;;;24.71;43.14;99770.91;5002853;28;20099;-80
2021/05/22 05:01:25;;;;;;;10.65;2.50;;;;;;;24.78;43.15;99773.69;5019267;28;20044;-79
2021/05/22 05:03:51;;;;;;;5.07;2.38;;;;;;;24.77;43.18;99772.84;5019257;28;20539;-79
2021/05/22 05:06:17;;;;;;;9.25;2.30;;;;;;;24.92;43.39;99778.16;5019196;28;20484;-82
2021/05/22 05:08:43;;;;;;;14.85;2.60;;;;;;;25.06;43.10;99771.69;5019079;28;20038;-79
2021/05/22 05:11:08;;;;;;;8.35;2.55;;;;;;;25.18;43.00;99781.00;5043631;28;20059;-80
2021/05/22 05:13:34;;;;;;;15.82;2.58;;;;;;;25.28;43.30;99782.50;5023161;28;20048;-79
2021/05/22 05:16:02;;;;;;;12.15;2.78;;;;;;;25.33;43.06;99778.06;5079743;28;20040;-79
2021/05/22 05:18:29;;;;;;;14.52;2.60;;;;;;;25.39;42.66;99771.78;5081222;28;20040;-80
2021/05/22 05:20:55;;;;;;;15.98;3.33;;;;;;;25.46;42.71;99793.66;5072208;28;20048;-82
2021/05/22 05:23:22;;;;;;;11.40;2.78;;;;;;;25.55;42.41;99786.09;5073347;28;20109;-78
2021/05/22 05:25:51;;;;;;;11.43;2.40;;;;;;;25.65;42.02;99792.88;5071456;28;20320;-77
2021/05/22 05:28:19;;;;;;;11.85;2.75;;;;;;;25.72;42.04;99803.78;5042211;28;20052;-81
2021/05/22 05:30:46;;;;;;;6.25;2.17;;;;;;;25.67;41.48;99795.38;5051817;28;20087;-79
2021/05/22 05:33:12;;;;;;;4.57;2.15;;;;;;;25.80;40.92;99783.59;5018578;28;20069;-80
2021/05/22 05:35:38;;;;;;;5.18;1.92;;;;;;;25.90;40.47;99790.34;5051789;28;20052;-79
2021/05/22 05:38:04;;;;;;;12.50;3.08;;;;;;;26.12;40.29;99787.38;5036710;28;20106;-81
2021/05/22 05:40:32;;;;;;;12.05;2.33;;;;;;;26.28;40.17;99786.91;5039711;28;20049;-77
2021/05/22 05:42:58;;;;;;;15.30;2.97;;;;;;;26.41;40.00;99780.59;5050519;28;20160;-79
2021/05/22 05:45:24;;;;;;;13.48;2.85;;;;;;;26.46;39.95;99777.22;5002236;28;20080;-82
2021/05/22 05:47:53;;;;;;;16.50;2.50;;;;;;;26.56;39.18;99783.09;5019712;28;20048;-82
2021/05/22 05:50:22;;;;;;;10.38;2.10;;;;;;;26.63;37.90;99775.69;5035800;28;20053;-79
2021/05/22 05:52:48;;;;;;;11.70;2.03;;;;;;;26.67;38.18;99785.19;5034752;28;20090;-78
2021/05/22 05:55:16;;;;;;;14.80;2.28;;;;;;;26.60;37.13;99779.72;5018636;28;20194;-77
2021/05/22 05:57:42;;;;;;;11.10;1.77;;;;;;;26.71;37.12;99789.16;5003092;28;20098;-79
2021/05/22 06:00:12;;;;;;;7.80;1.73;;;;;;;26.77;36.81;99791.00;5003073;28;20044;-77
2021/05/22 06:02:40;;;;;;;13.73;1.92;;;;;;;26.85;36.93;99793.53;5018696;28;20048;-80
2021/05/22 06:05:12;;;;;;;8.80;1.70;;;;;;;26.88;36.47;99771.13;5035130;28;20041;-78
2021/05/22 06:07:37;;;;;;;;;;;;;;;27.02;36.36;99784.81;5052230;28;20570;-76
2021/05/22 06:10:06;;;;;;;5.95;1.73;;;;;;;27.11;36.55;99786.25;5046550;28;19920;-79
2021/05/22 06:12:32;;;;;;;;;;;;;;;27.26;36.56;99792.28;4983477;28;20056;-77
2021/05/22 06:15:09;;;;;;;3.78;1.60;;;;;;;27.38;36.33;99775.09;4998763;28;20380;-77
2021/05/22 06:17:36;;;;;;;6.30;1.60;;;;;;;27.52;35.91;99780.28;5017008;28;20042;-77
2021/05/22 06:20:03;;;;;;;5.35;1.92;;;;;;;27.64;35.90;99780.38;4998907;28;20063;-78
2021/05/22 06:22:29;;;;;;;9.80;1.77;;;;;;;27.79;35.30;99772.69;4998933;28;20042;-79
2021/05/22 06:24:55;;;;;;;15.48;2.10;;;;;;;27.98;33.80;99779.09;5033027;28;20516;-82
2021/05/22 06:27:21;;;;;;;5.47;1.60;;;;;;;27.95;33.47;99775.97;4983495;28;20049;-80
2021/05/22 06:29:47;;;;;;;9.77;1.55;;;;;;;27.99;33.29;99778.03;4998806;28;20056;-79
2021/05/22 06:32:21;;;;;;;10.20;1.73;;;;;;;27.90;33.77;99778.53;5015965;28;20100;-78
2021/05/22 06:34:46;;;;;;;6.40;1.60;;;;;;;28.03;33.47;99776.50;4999097;28;20107;-79
2021/05/22 06:37:12;;;;;;;11.18;2.33;;;;;;;28.11;33.29;99769.03;5031269;28;20136;-79
2021/05/22 06:39:39;;;;;;;12.45;1.67;;;;;;;28.48;32.79;99765.28;4998534;28;20043;-79
2021/05/22 06:42:05;;;;;;;16.35;3.05;;;;;;;28.58;32.03;99758.38;4982638;28;20041;-74
2021/05/22 06:44:39;;;;;;;9.90;1.45;;;;;;;28.63;32.28;99759.38;5017134;28;20144;-81
2021/05/22 06:47:06;;;;;;;10.32;1.60;;;;;;;28.64;32.10;99751.97;5020287;28;20122;-79
2021/05/22 06:49:32;;;;;;;4.85;1.70;;;;;;;28.65;32.19;99737.97;5002091;28;20048;-78
2021/05/22 06:51:59;;;;;;;18.08;2.03;;;;;;;28.60;32.52;99729.59;5018033;28;20107;-78
2021/05/22 06:54:25;;;;;;;9.15;1.70;;;;;;;28.63;32.44;99734.63;5019922;28;20500;-77
2021/05/22 06:56:51;;;;;;;6.00;1.52;;;;;;;28.86;32.32;99733.06;5005947;28;20047;-77
2021/05/22 06:59:17;;;;;;;6.95;1.50;;;;;;;29.02;32.34;99729.69;5021184;28;20438;-76
2021/05/22 07:01:43;;;;;;;8.50;1.55;;;;;;;29.19;31.83;99727.97;5055486;28;20083;-77
2021/05/22 07:04:08;;;;;;;4.85;1.58;;;;;;;29.24;31.64;99725.31;5021288;28;20055;-78
2021/05/22 07:06:34;;;;;;;10.15;1.67;;;;;;;29.17;31.73;99713.56;5038051;28;20500;-76
2021/05/22 07:09:00;;;;;;;7.63;1.65;;;;;;;29.27;31.22;99700.06;4988631;28;20099;-77
2021/05/22 07:11:27;;;;;;;3.78;1.58;;;;;;;29.32;31.58;99704.88;5034903;28;20091;-74
2021/05/22 07:13:53;;;;;;;11.80;1.60;;;;;;;29.46;31.26;99706.34;5041222;28;20537;-75
2021/05/22 07:16:19;;;;;;;6.00;1.50;;;;;;;29.60;30.87;99698.72;5057765;28;20105;-76
2021/05/22 07:18:45;;;;;;;5.03;1.40;;;;;;;29.71;30.51;99692.38;5057534;28;20121;-79
2021/05/22 07:21:11;;;;;;;20.10;1.70;;;;;;;29.89;30.34;99682.31;5057636;28;20049;-77
2021/05/22 07:23:37;;;;;;;14.30;1.83;;;;;;;30.06;30.53;99683.25;5039660;28;20449;-78
2021/05/22 07:26:03;;;;;;;5.05;1.50;;;;;;;30.18;30.46;99669.47;5073366;28;20045;-78
2021/05/22 07:28:31;;;;;;;4.88;1.50;;;;;;;30.20;30.04;99668.16;5040643;28;20044;-78
2021/05/22 07:31:01;;;;;;;30.15;3.05;;;;;;;30.24;29.97;99674.88;5074149;28;20044;-77
2021/05/22 07:33:28;;;;;;;5.05;1.50;;;;;;;30.38;30.22;99660.78;5041057;28;20040;-77
2021/05/22 07:35:54;;;;;;;7.85;1.40;;;;;;;30.36;30.24;99662.97;5024386;28;20055;-78
2021/05/22 07:38:21;;;;;;;4.65;1.65;;;;;;;30.57;30.17;99656.75;5057110;28;20044;-77
2021/05/22 07:40:47;;;;;;;14.23;1.55;;;;;;;30.59;30.15;99659.28;5040632;28;20090;-77
2021/05/22 07:43:13;;;;;;;7.20;1.15;;;;;;;30.59;29.92;99654.59;5024000;28;20484;-78
2021/05/22 07:45:39;;;;;;;6.97;1.88;;;;;;;30.54;30.29;99662.78;5007931;28;20079;-78
2021/05/22 07:48:06;;;;;;;14.68;1.90;;;;;;;30.76;30.16;99653.81;5024097;28;20040;-78
2021/05/22 07:50:32;;;;;;;3.70;1.45;;;;;;;31.02;29.80;99647.69;5040455;28;20045;-80
2021/05/22 07:52:59;;;;;;;9.83;1.67;;;;;;;31.01;29.12;99629.44;5073754;28;20066;-79
2021/05/22 07:55:25;;;;;;;13.55;1.45;;;;;;;30.87;29.24;99628.91;5056741;28;20051;-80
2021/05/22 07:57:51;;;;;;;10.82;1.90;;;;;;;30.90;29.58;99627.59;5039971;28;20131;-76
2021/05/22 08:00:18;;;;;;;8.82;1.50;;;;;;;31.18;29.49;99629.44;5056801;28;20051;-77
2021/05/22 08:02:44;;;;;;;11.30;2.10;;;;;;;31.29;29.33;99617.47;5023661;28;20083;-76
2021/05/22 08:05:12;;;;;;;11.73;1.48;;;;;;;31.24;29.43;99619.34;5039141;28;20051;-77
2021/05/22 08:07:38;;;;;;;7.63;1.63;;;;;;;31.38;29.19;99624.28;5023917;28;20039;-76
2021/05/22 08:10:04;;;;;;;5.38;1.80;;;;;;;31.65;29.38;99624.41;5072937;28;20060;-78
2021/05/22 08:12:30;;;;;;;7.68;1.35;;;;;;;31.52;29.30;99624.78;5057443;28;20045;-76
2021/05/22 08:14:56;;;;;;;73.80;4.35;;;;;;;31.56;28.98;99614.91;5072734;28;20040;-76
2021/05/22 08:17:22;;;;;;;10.00;1.80;;;;;;;31.66;28.59;99601.22;5056523;28;20514;-77
2021/05/22 08:19:48;;;;;;;6.10;1.88;;;;;;;31.91;28.52;99605.47;5023472;28;20040;-77
2021/05/22 08:22:14;;;;;;;9.10;2.55;;;;;;;31.92;28.14;99590.53;5056338;28;20403;-77
2021/05/22 08:24:40;;;;;;;10.70;1.70;;;;;;;31.83;28.53;99586.53;5039536;28;20499;-79
2021/05/22 08:27:07;;;;;;;6.85;1.60;;;;;;;31.99;28.42;99580.13;5057053;28;20090;-77
2021/05/22 08:29:32;;;;;;;7.82;1.70;;;;;;;32.17;28.49;99576.22;5039670;28;20063;-78
2021/05/22 08:31:59;;;;;;;6.40;1.45;;;;;;;32.45;27.84;99572.38;5023468;28;20045;-78
2021/05/22 08:34:26;;;;;;;4.70;1.50;;;;;;;32.62;27.52;99577.81;5056265;28;20036;-77
2021/05/22 08:36:52;;;;;;;8.45;1.88;;;;;;;32.89;27.52;99572.25;5055861;28;20135;-78
2021/05/22 08:39:18;;;;;;;13.45;1.65;;;;;;;33.19;26.52;99562.56;5022836;28;20037;-79
2021/05/22 08:41:44;;;;;;;10.38;1.63;;;;;;;33.27;26.90;99556.50;5055480;28;20133;-79
2021/05/22 08:44:10;;;;;;;7.53;1.80;;;;;;;33.01;26.05;99553.56;5022948;28;20450;-78
2021/05/22 08:46:36;;;;;;;15.77;3.67;;;;;;;32.99;26.18;99558.53;5039489;28;20064;-79
2021/05/22 08:49:02;;;;;;;6.22;1.38;;;;;;;33.07;26.24;99541.41;5055851;28;20082;-77
2021/05/22 08:51:28;;;;;;;9.77;1.70;;;;;;;33.27;26.40;99539.88;5072376;28;20036;-77
2021/05/22 08:53:54;;;;;;;11.95;1.85;;;;;;;33.52;26.00;99528.16;5055384;28;20047;-78
2021/05/22 08:56:20;;;;;;;10.77;1.83;;;;;;;33.71;25.46;99536.84;5056448;28;20044;-77
2021/05/22 08:58:47;;;;;;;13.10;1.70;;;;;;;33.58;25.89;99538.16;5039269;28;20097;-77
2021/05/22 09:01:13;;;;;;;16.35;1.60;;;;;;;33.46;25.70;99527.28;5072513;28;20040;-77
2021/05/22 09:03:39;;;;;;;20.95;2.13;;;;;;;33.74;26.02;99541.84;5039205;28;20483;-76
2021/05/22 09:06:05;;;;;;;11.73;1.45;;;;;;;33.94;25.91;99532.78;5022475;28;20541;-77
2021/05/22 09:08:34;;;;;;;12.23;1.90;;;;;;;34.32;25.85;99539.84;5038455;28;20180;-76
2021/05/22 09:11:04;;;;;;;9.10;1.40;;;;;;;34.55;25.16;99539.38;5055602;28;20063;-77
2021/05/22 09:13:31;;;;;;;6.05;1.73;;;;;;;34.71;24.78;99519.94;5038645;28;20041;-77
2021/05/22 09:15:58;;;;;;;13.23;1.70;;;;;;;35.09;25.26;99520.50;5056049;28;20052;-78
2021/05/22 09:18:25;;;;;;;28.48;2.30;;;;;;;35.10;24.54;99524.97;5022817;28;20127;-76
2021/05/22 09:20:56;;;;;;;21.90;2.00;;;;;;;34.84;25.37;99518.56;5056330;28;20135;-79
2021/05/22 09:23:23;;;;;;;13.20;1.67;;;;;;;34.99;24.65;99527.75;5055694;28;20286;-77
2021/05/22 09:25:51;;;;;;;20.03;1.60;;;;;;;34.74;24.75;99527.72;5039113;28;20138;-77
2021/05/22 09:28:22;;;;;;;11.23;1.45;;;;;;;34.97;24.55;99524.38;5038618;28;20044;-77
2021/05/22 09:30:49;;;;;;;37.20;3.03;;;;;;;35.26;24.70;99521.03;5055199;28;20058;-77
2021/05/22 09:33:19;;;;;;;10.90;1.50;;;;;;;35.48;23.94;99502.09;5071847;28;20090;-78
2021/05/22 09:35:53;;;;;;;14.18;2.28;;;;;;;35.37;24.13;99506.00;5006358;28;20634;-78
2021/05/22 09:38:19;;;;;;;13.68;1.50;;;;;;;35.65;24.07;99503.72;5073400;28;20049;-80
2021/05/22 09:40:45;;;;;;;27.52;2.22;;;;;;;35.97;23.62;99514.44;5071844;28;20458;-79
2021/05/22 09:43:13;;;;;;;29.27;2.55;;;;;;;36.24;23.28;99508.44;5072041;28;20048;-78
2021/05/22 09:45:45;;;;;;;22.75;1.98;;;;;;;36.52;23.63;99506.06;5072826;28;20049;-77
2021/05/22 09:48:23;;;;;;;14.75;1.33;;;;;;;36.87;23.11;99500.19;5022079;28;20087;-78
2021/05/22 09:50:50;;;;;;;11.18;1.55;;;;;;;37.05;22.96;99497.81;5038732;28;20048;-78
2021/05/22 09:53:29;;;;;;;11.10;1.80;;;;;;;37.41;22.47;99485.19;5038479;28;20105;-76
2021/05/22 09:56:20;;;;;;;14.63;1.83;;;;;;;37.70;21.73;99484.28;5055725;28;20047;-77
2021/05/22 09:58:54;;;;;;;19.63;1.95;;;;;;;37.45;21.43;99479.03;5056801;28;20048;-79
2021/05/22 10:01:40;;;;;;;18.92;1.65;;;;;;;37.51;21.36;99480.63;5055368;28;20443;-78
2021/05/22 10:04:16;;;;;;;15.85;2.20;;;;;;;37.40;21.16;99474.31;5057415;28;20073;-79
2021/05/22 10:06:42;;;;;;;19.52;1.85;;;;;;;38.02;21.22;99479.97;5038459;28;20454;-78
2021/05/22 10:09:15;;;;;;;10.35;1.70;;;;;;;37.96;20.85;99484.81;5071318;28;20137;-77
2021/05/22 10:12:03;;;;;;;18.88;1.52;;;;;;;38.23;20.71;99474.94;5038261;28;20055;-78
2021/05/22 10:14:32;;;;;;;17.92;1.60;;;;;;;38.48;20.27;99465.34;5054589;28;20399;-77
2021/05/22 10:17:02;;;;;;;10.25;1.67;;;;;;;39.19;19.91;99472.47;5038316;28;20056;-78
2021/05/22 10:19:28;;;;;;;19.52;2.00;;;;;;;39.04;19.49;99467.19;5054705;28;20045;-77
2021/05/22 10:21:55;;;;;;;20.90;2.00;;;;;;;39.25;19.47;99467.66;5054579;28;20044;-77
2021/05/22 10:24:21;;;;;;;13.98;1.52;;;;;;;38.95;19.66;99441.91;5054431;28;20041;-77
2021/05/22 10:26:47;;;;;;;11.65;1.95;;;;;;;39.14;20.07;99447.41;5021758;28;20051;-78
2021/05/22 10:29:13;;;;;;;17.88;2.00;;;;;;;39.42;19.34;99450.25;5040274;28;20380;-78
2021/05/22 10:31:40;;;;;;;38.05;2.80;;;;;;;40.01;19.17;99443.66;5025648;28;20075;-77
2021/05/22 10:34:19;;;;;;;16.67;2.00;;;;;;;39.79;18.84;99430.44;5025375;28;20040;-77
2021/05/22 10:36:54;;;;;;;28.52;2.03;;;;;;;39.67;18.55;99435.72;5058614;28;20174;-78
2021/05/22 10:39:39;;;;;;;25.15;2.65;;;;;;;39.63;18.81;99442.25;5058446;28;20131;-78
2021/05/22 10:42:09;;;;;;;9.80;1.50;;;;;;;39.47;18.65;99430.56;5041844;28;20041;-77
2021/05/22 10:44:38;;;;;;;19.23;2.40;;;;;;;39.86;18.67;99423.59;5059462;28;20052;-80
2021/05/22 10:47:11;;;;;;;21.42;1.98;;;;;;;40.67;18.33;99427.25;5027488;28;20155;-78
2021/05/22 10:49:53;;;;;;;19.60;1.83;;;;;;;40.92;18.18;99427.69;5076502;28;20124;-79
2021/05/22 10:52:24;;;;;;;19.95;1.65;;;;;;;41.27;17.98;99420.31;5043202;28;20041;-78
2021/05/22 10:55:12;;;;;;;10.50;1.58;;;;;;;41.49;17.52;99422.22;5076102;28;20419;-79
2021/05/22 10:57:42;;;;;;;29.02;2.33;;;;;;;41.45;17.69;99412.78;5042898;28;20047;-78
2021/05/22 11:00:17;;;;;;;27.35;2.78;;;;;;;41.62;17.45;99393.19;5074754;28;20044;-78
2021/05/22 11:02:46;;;;;;;14.60;2.22;;;;;;;41.08;17.71;99395.31;5076012;28;20131;-77
2021/05/22 11:05:22;;;;;;;11.07;2.08;;;;;;;41.15;18.24;99398.50;5042990;28;20128;-80
2021/05/22 11:07:49;;;;;;;16.60;2.08;;;;;;;41.44;17.65;99391.50;5058256;28;20475;-77
2021/05/22 11:10:34;;;;;;;11.85;1.73;;;;;;;41.36;17.48;99372.63;5074585;28;20120;-78
2021/05/22 11:13:00;;;;;;;13.07;1.90;;;;;;;41.27;17.58;99374.59;5025077;28;20048;-77
2021/05/22 11:15:44;;;;;;;35.25;2.70;;;;;;;41.04;17.25;99380.31;5041197;28;20037;-80
2021/05/22 11:18:11;;;;;;;31.23;2.08;;;;;;;40.15;17.70;99368.03;5058384;28;20044;-77
2021/05/22 11:20:38;;;;;;;23.45;2.70;;;;;;;39.30;17.78;99370.50;5057882;28;20047;-77
2021/05/22 11:23:04;;;;;;;21.30;2.15;;;;;;;38.95;18.37;99374.00;5057606;28;20037;-80
2021/05/22 11:25:52;;;;;;;16.23;1.70;;;;;;;39.33;18.24;99364.28;5058236;28;20054;-78
2021/05/22 11:28:22;;;;;;;40.53;2.38;;;;;;;40.56;17.66;99350.22;5024603;28;20135;-77
2021/05/22 11:30:48;;;;;;;20.10;2.05;;;;;;;40.83;17.00;99356.75;5024770;28;20399;-78
2021/05/22 11:33:20;;;;;;;13.97;2.13;;;;;;;41.13;16.95;99341.06;5040513;28;20047;-77
2021/05/22 11:35:51;;;;;;;17.02;2.00;;;;;;;41.77;17.02;99349.78;5057212;28;20109;-77